createdAt,value
2022-08-17T00:02:26.131Z,7.15
2022-08-17T00:04:54.653Z,5.10
2022-08-17T00:07:21.580Z,4.35
2022-08-17T00:09:48.427Z,5.88
2022-08-17T00:12:42.177Z,8.60
2022-08-17T00:15:02.797Z,5.90
2022-08-17T00:17:29.564Z,6.70
2022-08-17T00:19:56.456Z,4.68
2022-08-17T00:22:33.695Z,4.20
2022-08-17T00:25:03.680Z,5.35
2022-08-17T00:27:30.451Z,5.18
2022-08-17T00:29:57.265Z,6.18
2022-08-17T00:33:11.651Z,4.95
2022-08-17T00:35:14.578Z,6.63
2022-08-17T00:37:41.742Z,4.53
2022-08-17T00:40:11.447Z,6.22
2022-08-17T00:42:40.460Z,5.05
2022-08-17T00:45:09.172Z,4.78
2022-08-17T00:47:36.197Z,4.32
2022-08-17T00:50:05.468Z,4.28
2022-08-17T00:52:38.895Z,4.03
2022-08-17T00:55:07.765Z,4.30
2022-08-17T00:57:43.992Z,4.28
2022-08-17T01:00:21.495Z,4.53
2022-08-17T01:02:49.191Z,3.92
2022-08-17T01:05:20.777Z,4.65
2022-08-17T01:07:49.430Z,5.32
2022-08-17T01:10:57.530Z,5.95
2022-08-17T01:13:07.553Z,4.22
2022-08-17T01:15:41.674Z,5.50
2022-08-17T01:18:14.920Z,6.00
2022-08-17T01:20:49.064Z,4.45
2022-08-17T01:23:20.504Z,4.90
2022-08-17T01:25:51.481Z,5.40
2022-08-17T01:28:53.085Z,4.63
2022-08-17T01:31:08.562Z,4.90
2022-08-17T01:33:36.328Z,8.88
2022-08-17T01:36:04.312Z,4.47
2022-08-17T01:38:32.039Z,4.97
2022-08-17T01:41:05.765Z,4.68
2022-08-17T01:43:39.147Z,4.53
2022-08-17T01:46:06.156Z,5.40
2022-08-17T01:48:34.913Z,5.30
2022-08-17T01:51:01.986Z,4.53
2022-08-17T01:53:44.364Z,4.32
2022-08-17T01:56:14.376Z,4.80
2022-08-17T01:58:42.405Z,5.32
2022-08-17T02:01:10.549Z,4.80
2022-08-17T02:03:38.491Z,4.82
2022-08-17T02:06:27.987Z,5.78
2022-08-17T02:09:01.615Z,5.22
2022-08-17T02:11:31.028Z,5.35
2022-08-17T02:14:02.933Z,4.75
2022-08-17T02:16:36.787Z,4.32
2022-08-17T02:19:10.455Z,4.28
2022-08-17T02:21:38.871Z,4.93
2022-08-17T02:24:08.767Z,5.70
2022-08-17T02:26:36.653Z,5.35
2022-08-17T02:29:04.324Z,6.00
2022-08-17T02:31:31.598Z,5.07
2022-08-17T02:34:03.704Z,6.93
2022-08-17T02:36:33.375Z,4.60
2022-08-17T02:39:08.516Z,4.57
2022-08-17T02:41:36.617Z,4.38
2022-08-17T02:44:04.411Z,4.90
2022-08-17T02:46:32.296Z,5.80
2022-08-17T02:48:59.615Z,6.22
2022-08-17T02:51:26.985Z,6.85
2022-08-17T02:54:35.753Z,5.45
2022-08-17T02:56:40.604Z,6.90
2022-08-17T02:59:07.341Z,4.50
2022-08-17T03:01:34.217Z,5.30
2022-08-17T03:04:01.071Z,4.70
2022-08-17T03:06:29.243Z,6.07
2022-08-17T03:08:56.009Z,6.32
2022-08-17T03:11:23.613Z,4.90
2022-08-17T03:13:50.439Z,4.68
2022-08-17T03:16:17.251Z,5.10
2022-08-17T03:18:44.133Z,6.70
2022-08-17T03:21:11.169Z,5.93
2022-08-17T03:23:41.315Z,4.93
2022-08-17T03:26:15.294Z,6.65
2022-08-17T03:31:09.412Z,5.32
2022-08-17T03:33:36.183Z,7.38
2022-08-17T03:36:03.193Z,6.10
2022-08-17T03:38:30.114Z,4.70
2022-08-17T03:41:07.085Z,9.07
2022-08-17T03:43:34.740Z,5.55
2022-08-17T03:46:27.673Z,4.85
2022-08-17T03:49:15.163Z,6.15
2022-08-17T03:52:00.509Z,4.55
2022-08-17T03:54:46.255Z,5.25
2022-08-17T03:57:13.409Z,5.43
2022-08-17T03:59:41.012Z,4.75
2022-08-17T04:02:11.580Z,5.68
2022-08-17T04:04:39.684Z,5.68
2022-08-17T04:07:07.452Z,7.82
2022-08-17T04:09:34.497Z,6.25
2022-08-17T04:12:04.656Z,6.72
2022-08-17T04:14:39.188Z,4.47
2022-08-17T04:17:19.923Z,6.93
2022-08-17T04:19:47.102Z,5.13
2022-08-17T04:22:31.346Z,5.85
2022-08-17T04:25:02.152Z,4.68
2022-08-17T04:27:28.922Z,4.82
2022-08-17T04:29:56.162Z,5.65
2022-08-17T04:33:04.768Z,7.25
2022-08-17T04:35:10.585Z,8.30
2022-08-17T04:37:37.301Z,5.93
2022-08-17T04:40:43.105Z,6.80
2022-08-17T04:43:12.730Z,5.82
2022-08-17T04:45:55.226Z,7.32
2022-08-17T04:48:35.221Z,7.85
2022-08-17T04:51:10.273Z,6.38
2022-08-17T04:53:39.609Z,5.68
2022-08-17T04:56:07.002Z,5.60
2022-08-17T04:58:33.941Z,6.80
2022-08-17T05:01:01.569Z,5.35
2022-08-17T05:03:28.624Z,7.95
2022-08-17T05:05:55.548Z,8.05
2022-08-17T05:08:22.659Z,5.47
2022-08-17T05:10:50.178Z,5.88
2022-08-17T05:13:23.681Z,7.72
2022-08-17T05:15:55.940Z,6.63
2022-08-17T05:18:22.704Z,5.15
2022-08-17T05:20:51.467Z,5.32
2022-08-17T05:23:21.078Z,5.88
2022-08-17T05:25:51.414Z,8.48
2022-08-17T05:28:23.518Z,5.68
2022-08-17T05:30:55.043Z,5.53
2022-08-17T05:33:25.545Z,5.57
2022-08-17T05:35:55.173Z,5.40
2022-08-17T05:38:24.011Z,8.32
2022-08-17T05:40:51.387Z,6.95
2022-08-17T05:43:25.484Z,9.50
2022-08-17T05:46:20.331Z,7.82
2022-08-17T05:48:54.040Z,7.18
2022-08-17T05:51:48.711Z,5.85
2022-08-17T05:54:24.722Z,5.07
2022-08-17T05:57:17.141Z,7.03
2022-08-17T05:59:50.484Z,5.82
2022-08-17T06:02:44.178Z,10.20
2022-08-17T06:05:38.043Z,5.50
2022-08-17T06:08:21.995Z,6.43
2022-08-17T06:11:00.756Z,6.10
2022-08-17T06:13:47.905Z,7.38
2022-08-17T06:16:26.180Z,5.90
2022-08-17T06:19:05.120Z,11.68
2022-08-17T06:21:38.881Z,6.00
2022-08-17T06:24:08.268Z,7.55
2022-08-17T06:26:43.274Z,5.82
2022-08-17T06:29:33.588Z,10.63
2022-08-17T06:32:02.531Z,8.48
2022-08-17T06:34:29.971Z,6.30
2022-08-17T06:37:21.295Z,4.68
2022-08-17T06:40:02.506Z,7.90
2022-08-17T06:42:59.888Z,5.93
2022-08-17T06:45:49.350Z,9.90
2022-08-17T06:48:34.864Z,5.47
2022-08-17T06:51:10.358Z,6.50
2022-08-17T06:53:45.282Z,9.70
2022-08-17T06:56:19.547Z,6.75
2022-08-17T06:58:46.981Z,7.05
2022-08-17T07:01:26.892Z,7.30
2022-08-17T07:03:57.544Z,6.38
2022-08-17T07:06:28.715Z,6.85
2022-08-17T07:08:55.511Z,6.70
2022-08-17T07:11:39.433Z,6.30
2022-08-17T07:14:35.590Z,7.22
2022-08-17T07:17:09.603Z,6.03
2022-08-17T07:19:41.140Z,7.88
2022-08-17T07:22:14.689Z,5.05
2022-08-17T07:25:12.737Z,6.32
2022-08-17T07:27:51.145Z,12.68
2022-08-17T07:30:24.899Z,8.82
2022-08-17T07:32:58.997Z,11.60
2022-08-17T07:35:31.296Z,9.00
2022-08-17T07:38:25.583Z,12.80
2022-08-17T07:41:02.812Z,10.40
2022-08-17T07:43:35.627Z,10.57
2022-08-17T07:46:38.318Z,13.18
2022-08-17T07:49:08.121Z,11.63
2022-08-17T07:51:39.043Z,14.50
2022-08-17T07:54:28.854Z,11.30
2022-08-17T07:57:00.295Z,11.68
2022-08-17T07:59:27.229Z,13.60
2022-08-17T08:02:06.852Z,16.17
2022-08-17T08:05:00.217Z,8.93
2022-08-17T08:07:34.741Z,13.05
2022-08-17T08:10:12.611Z,10.25
2022-08-17T08:12:47.879Z,9.73
2022-08-17T08:15:39.708Z,12.15
2022-08-17T08:18:53.286Z,8.02
2022-08-17T08:21:33.612Z,8.85
2022-08-17T08:24:38.783Z,9.60
2022-08-17T08:27:23.007Z,16.77
2022-08-17T08:29:54.163Z,26.98
2022-08-17T08:32:35.590Z,28.48
2022-08-17T08:35:27.451Z,33.83
2022-08-17T08:38:15.632Z,23.35
2022-08-17T08:41:00.627Z,16.75
2022-08-17T08:43:50.807Z,11.02
2022-08-17T08:46:31.779Z,11.60
2022-08-17T08:50:01.335Z,12.00
2022-08-17T08:52:30.974Z,8.98
2022-08-17T08:55:07.714Z,10.90
2022-08-17T08:57:40.303Z,13.38
2022-08-17T09:00:14.734Z,17.95
2022-08-17T09:02:56.464Z,19.58
2022-08-17T09:05:36.841Z,16.30
2022-08-17T09:08:12.647Z,16.05
2022-08-17T09:11:12.923Z,13.52
2022-08-17T09:14:01.990Z,14.50
2022-08-17T09:16:42.595Z,13.35
2022-08-17T09:19:30.418Z,10.48
2022-08-17T09:22:03.421Z,10.70
2022-08-17T09:24:45.536Z,18.80
2022-08-17T09:27:18.799Z,16.52
2022-08-17T09:29:51.715Z,20.30
2022-08-17T09:32:28.832Z,14.77
2022-08-17T09:35:04.133Z,11.80
2022-08-17T09:37:39.394Z,15.90
2022-08-17T09:40:18.472Z,11.38
2022-08-17T09:43:15.588Z,11.18
2022-08-17T09:45:49.615Z,12.10
2022-08-17T09:48:40.545Z,17.15
2022-08-17T09:51:11.434Z,13.80
2022-08-17T09:53:39.655Z,15.38
2022-08-17T09:56:16.036Z,14.73
2022-08-17T09:58:49.832Z,14.75
2022-08-17T10:04:20.247Z,13.35
2022-08-17T10:07:31.585Z,13.18
2022-08-17T10:10:03.110Z,11.05
2022-08-17T10:12:46.440Z,9.95
2022-08-17T10:18:14.307Z,11.88
2022-08-17T10:21:19.720Z,11.82
2022-08-17T10:24:10.077Z,11.88
2022-08-17T10:26:54.154Z,11.02
2022-08-17T10:29:47.376Z,16.33
2022-08-17T10:32:33.234Z,12.90
2022-08-17T10:35:36.836Z,12.75
2022-08-17T10:38:28.451Z,13.35
2022-08-17T10:40:58.741Z,12.52
2022-08-17T10:43:34.708Z,15.82
2022-08-17T10:46:31.430Z,12.82
2022-08-17T10:49:17.154Z,12.43
2022-08-17T10:51:49.310Z,15.63
2022-08-17T10:54:29.000Z,11.32
2022-08-17T10:56:57.472Z,13.88
2022-08-17T10:59:37.020Z,13.20
2022-08-17T11:02:23.409Z,11.85
2022-08-17T11:05:13.758Z,12.60
2022-08-17T11:07:55.222Z,12.35
2022-08-17T11:10:42.458Z,10.85
2022-08-17T11:13:22.136Z,11.30
2022-08-17T11:16:28.031Z,14.73
2022-08-17T11:19:28.390Z,12.10
2022-08-17T11:22:32.777Z,12.60
2022-08-17T11:25:15.593Z,10.93
2022-08-17T11:27:44.415Z,10.52
2022-08-17T11:30:40.189Z,11.45
2022-08-17T11:33:34.141Z,12.05
2022-08-17T11:36:26.868Z,10.98
2022-08-17T11:39:26.585Z,11.23
2022-08-17T11:42:16.886Z,10.23
2022-08-17T11:44:53.235Z,11.38
2022-08-17T11:48:23.923Z,11.70
2022-08-17T11:51:29.215Z,13.20
2022-08-17T11:54:31.299Z,14.80
2022-08-17T11:56:51.263Z,11.07
2022-08-17T11:59:33.581Z,11.25
2022-08-17T12:02:04.231Z,12.82
2022-08-17T12:04:34.273Z,13.75
2022-08-17T12:07:11.641Z,13.70
2022-08-17T12:09:44.234Z,13.75
2022-08-17T12:12:31.248Z,13.45
2022-08-17T12:15:15.925Z,14.30
2022-08-17T12:17:50.993Z,13.27
2022-08-17T12:20:28.319Z,13.07
2022-08-17T12:23:22.393Z,13.52
2022-08-17T12:26:13.547Z,11.80
2022-08-17T12:28:46.302Z,16.73
2022-08-17T12:31:37.281Z,14.98
2022-08-17T12:34:05.748Z,13.52
2022-08-17T12:36:34.381Z,16.25
2022-08-17T12:39:12.951Z,15.63
2022-08-17T12:41:47.309Z,12.93
2022-08-17T12:44:16.045Z,14.30
2022-08-17T12:47:04.836Z,14.07
2022-08-17T12:49:32.059Z,14.05
2022-08-17T12:52:24.923Z,14.75
2022-08-17T12:55:06.004Z,13.57
2022-08-17T12:57:39.764Z,14.43
2022-08-17T13:03:02.553Z,14.50
2022-08-17T13:05:31.579Z,14.05
2022-08-17T13:08:00.272Z,13.45
2022-08-17T13:10:33.123Z,14.15
2022-08-17T13:13:06.094Z,13.50
2022-08-17T13:15:33.138Z,13.38
2022-08-17T13:18:28.484Z,13.98
2022-08-17T13:20:58.977Z,16.05
2022-08-17T13:23:29.662Z,18.13
2022-08-17T13:26:15.225Z,15.93
2022-08-17T13:28:49.909Z,15.50
2022-08-17T13:31:52.400Z,13.52
2022-08-17T13:34:27.226Z,15.02
2022-08-17T13:37:18.700Z,13.80
2022-08-17T13:39:49.003Z,14.32
2022-08-17T13:42:51.799Z,14.60
2022-08-17T13:45:38.739Z,14.38
2022-08-17T13:48:11.842Z,14.05
2022-08-17T13:50:49.743Z,16.33
2022-08-17T13:53:26.534Z,15.00
2022-08-17T13:56:37.204Z,15.05
2022-08-17T13:59:08.208Z,15.25
2022-08-17T14:01:40.079Z,15.10
2022-08-17T14:04:27.603Z,19.77
2022-08-17T14:06:58.118Z,16.67
2022-08-17T14:09:33.583Z,14.43
2022-08-17T14:12:06.642Z,17.88
2022-08-17T14:14:33.766Z,13.45
2022-08-17T14:17:00.910Z,15.27
2022-08-17T14:19:27.836Z,16.80
2022-08-17T14:21:59.207Z,14.95
2022-08-17T14:24:34.177Z,15.48
2022-08-17T14:27:03.850Z,14.68
2022-08-17T14:29:32.692Z,13.43
2022-08-17T14:32:06.995Z,14.98
2022-08-17T14:34:34.269Z,14.02
2022-08-17T14:37:02.460Z,14.48
2022-08-17T14:39:29.574Z,13.52
2022-08-17T14:41:58.529Z,14.40
2022-08-17T14:44:25.979Z,13.85
2022-08-17T14:46:53.218Z,15.70
2022-08-17T14:49:22.342Z,13.65
2022-08-17T14:51:49.726Z,14.38
2022-08-17T14:54:33.312Z,14.23
2022-08-17T14:57:23.429Z,14.63
2022-08-17T14:59:54.862Z,12.38
2022-08-17T15:02:29.969Z,13.70
2022-08-17T15:05:06.772Z,15.07
2022-08-17T15:07:35.888Z,12.65
2022-08-17T15:10:06.787Z,12.30
2022-08-17T15:12:37.213Z,13.52
2022-08-17T15:15:07.187Z,13.10
2022-08-17T15:17:44.206Z,13.20
2022-08-17T15:20:17.589Z,13.10
2022-08-17T15:22:48.571Z,11.20
2022-08-17T15:25:26.621Z,13.60
2022-08-17T15:27:56.216Z,11.35
2022-08-17T15:30:30.263Z,12.52
2022-08-17T15:32:58.837Z,9.15
2022-08-17T15:35:29.326Z,8.52
2022-08-17T15:38:10.780Z,9.63
2022-08-17T15:40:44.011Z,10.20
2022-08-17T15:43:15.057Z,9.68
2022-08-17T15:45:58.629Z,8.93
2022-08-17T15:48:43.782Z,7.82
2022-08-17T15:51:21.767Z,9.55
2022-08-17T15:53:55.639Z,9.30
2022-08-17T15:56:23.211Z,9.77
2022-08-17T15:58:50.406Z,14.20
2022-08-17T16:01:42.263Z,10.40
2022-08-17T16:04:30.443Z,10.02
2022-08-17T16:06:57.994Z,9.57
2022-08-17T16:09:25.680Z,10.23
2022-08-17T16:11:58.092Z,8.15
2022-08-17T16:14:34.005Z,8.80
2022-08-17T16:17:03.812Z,7.82
2022-08-17T16:19:35.350Z,9.15
2022-08-17T16:22:14.212Z,9.30
2022-08-17T16:24:57.008Z,9.73
2022-08-17T16:27:35.741Z,8.48
2022-08-17T16:30:18.231Z,9.63
2022-08-17T16:32:59.065Z,9.68
2022-08-17T16:35:28.023Z,9.85
2022-08-17T16:37:59.008Z,10.95
2022-08-17T16:40:29.126Z,11.48
2022-08-17T16:43:13.546Z,9.57
2022-08-17T16:45:42.722Z,9.10
2022-08-17T16:48:10.459Z,8.55
2022-08-17T16:50:38.194Z,10.00
2022-08-17T16:53:17.788Z,7.90
2022-08-17T16:55:47.295Z,7.95
2022-08-17T16:58:17.245Z,7.55
2022-08-17T17:00:47.689Z,7.88
2022-08-17T17:03:20.797Z,8.73
2022-08-17T17:06:07.592Z,9.07
2022-08-17T17:08:56.197Z,9.70
2022-08-17T17:11:35.257Z,9.18
2022-08-17T17:14:30.220Z,9.18
2022-08-17T17:17:12.157Z,12.10
2022-08-17T17:20:15.024Z,8.45
2022-08-17T17:22:48.604Z,8.38
2022-08-17T17:25:38.432Z,8.23
2022-08-17T17:28:19.836Z,8.20
2022-08-17T17:31:06.302Z,8.88
2022-08-17T17:33:43.829Z,10.02
2022-08-17T17:36:27.621Z,10.32
2022-08-17T17:39:04.632Z,9.30
2022-08-17T17:41:52.791Z,9.50
2022-08-17T17:44:27.466Z,9.27
2022-08-17T17:49:46.205Z,9.23
2022-08-17T17:52:38.688Z,8.65
2022-08-17T17:55:06.996Z,9.15
2022-08-17T17:57:55.998Z,11.98
2022-08-17T18:00:35.719Z,11.27
2022-08-17T18:03:08.431Z,10.55
2022-08-17T18:05:42.316Z,9.20
2022-08-17T18:08:34.074Z,10.35
2022-08-17T18:11:12.387Z,8.68
2022-08-17T18:14:16.832Z,9.20
2022-08-17T18:16:49.677Z,8.45
2022-08-17T18:19:27.005Z,9.07
2022-08-17T18:22:03.158Z,9.02
2022-08-17T18:24:39.591Z,8.57
2022-08-17T18:30:15.358Z,8.98
2022-08-17T18:32:47.559Z,9.40
2022-08-17T18:35:14.771Z,10.98
2022-08-17T18:37:48.858Z,9.18
2022-08-17T18:40:22.037Z,8.93
2022-08-17T18:43:03.771Z,8.07
2022-08-17T18:45:47.601Z,10.80
2022-08-17T18:48:33.601Z,10.68
2022-08-17T18:51:21.282Z,9.95
2022-08-17T18:54:08.871Z,8.77
2022-08-17T18:56:41.632Z,8.48
2022-08-17T18:59:35.049Z,9.48
2022-08-17T19:02:36.123Z,8.95
2022-08-17T19:05:33.491Z,8.65
2022-08-17T19:08:25.267Z,9.02
2022-08-17T19:11:03.433Z,8.90
2022-08-17T19:13:37.291Z,9.60
2022-08-17T19:16:34.844Z,9.55
2022-08-17T19:19:11.277Z,10.30
2022-08-17T19:21:46.335Z,10.00
2022-08-17T19:24:28.845Z,10.40
2022-08-17T19:26:58.347Z,9.65
2022-08-17T19:29:38.376Z,11.13
2022-08-17T19:32:09.288Z,9.75
2022-08-17T19:34:39.394Z,9.80
2022-08-17T19:37:27.607Z,10.35
2022-08-17T19:40:08.193Z,10.57
2022-08-17T19:43:08.965Z,10.43
2022-08-17T19:46:07.888Z,10.13
2022-08-17T19:49:13.934Z,11.82
2022-08-17T19:52:21.508Z,10.68
2022-08-17T19:55:20.252Z,9.38
2022-08-17T19:58:10.271Z,10.90
2022-08-17T20:00:47.400Z,10.45
2022-08-17T20:03:39.299Z,11.43
2022-08-17T20:06:13.378Z,11.07
2022-08-17T20:08:58.554Z,13.23
2022-08-17T20:11:34.759Z,13.98
2022-08-17T20:14:16.022Z,10.73
2022-08-17T20:16:44.108Z,11.05
2022-08-17T20:19:22.848Z,11.93
2022-08-17T20:22:00.399Z,11.95
2022-08-17T20:24:55.828Z,12.45
2022-08-17T20:27:35.026Z,10.90
2022-08-17T20:30:32.421Z,12.10
2022-08-17T20:33:01.292Z,10.95
2022-08-17T20:35:42.695Z,10.80
2022-08-17T20:38:13.282Z,10.43
2022-08-17T20:41:01.173Z,11.45
2022-08-17T20:43:34.175Z,12.13
2022-08-17T20:46:36.877Z,11.00
2022-08-17T20:49:45.629Z,11.45
2022-08-17T20:52:36.171Z,12.48
2022-08-17T20:55:08.592Z,11.55
2022-08-17T20:57:45.513Z,11.50
2022-08-17T21:00:37.200Z,12.60
2022-08-17T21:03:22.966Z,11.55
2022-08-17T21:06:16.864Z,12.27
2022-08-17T21:12:05.274Z,11.68
2022-08-17T21:14:51.394Z,11.73
2022-08-17T21:17:47.360Z,12.25
2022-08-17T21:20:32.844Z,12.73
2022-08-17T21:23:16.439Z,11.07
2022-08-17T21:26:07.230Z,12.40
2022-08-17T21:29:29.572Z,11.13
2022-08-17T21:32:05.507Z,11.13
2022-08-17T21:35:13.484Z,12.48
2022-08-17T21:37:53.431Z,13.00
2022-08-17T21:40:36.300Z,10.70
2022-08-17T21:43:29.136Z,11.77
2022-08-17T21:46:04.728Z,11.23
2022-08-17T21:48:48.093Z,11.88
2022-08-17T21:51:32.251Z,13.52
2022-08-17T21:54:13.135Z,13.43
2022-08-17T21:56:45.853Z,13.90
2022-08-17T21:59:19.850Z,12.13
2022-08-17T22:01:58.084Z,13.95
2022-08-17T22:04:31.009Z,10.75
2022-08-17T22:07:00.845Z,14.10
2022-08-17T22:09:36.095Z,12.45
2022-08-17T22:12:06.273Z,14.43
2022-08-17T22:14:52.247Z,12.05
2022-08-17T22:17:37.138Z,12.60
2022-08-17T22:20:19.927Z,12.57
2022-08-17T22:23:08.592Z,12.63
2022-08-17T22:25:41.136Z,13.20
2022-08-17T22:28:11.271Z,12.27
2022-08-17T22:30:58.479Z,11.98
2022-08-17T22:36:13.825Z,11.43
2022-08-17T22:38:43.681Z,11.80
2022-08-17T22:41:52.190Z,11.77
2022-08-17T22:44:30.221Z,11.70
2022-08-17T22:47:23.067Z,12.15
2022-08-17T22:49:57.946Z,12.05
2022-08-17T22:52:35.285Z,12.38
2022-08-17T22:55:23.275Z,11.60
2022-08-17T22:58:10.422Z,10.90
2022-08-17T23:00:42.114Z,11.32
2022-08-17T23:03:20.873Z,12.50
2022-08-17T23:06:09.723Z,11.52
2022-08-17T23:08:54.762Z,13.27
2022-08-17T23:11:43.021Z,12.38
2022-08-17T23:14:15.831Z,12.50
2022-08-17T23:16:42.908Z,12.05
2022-08-17T23:19:16.402Z,14.93
2022-08-17T23:21:47.529Z,12.40
2022-08-17T23:24:21.462Z,13.27
2022-08-17T23:26:48.436Z,12.27
2022-08-17T23:29:15.260Z,11.57
2022-08-17T23:31:42.242Z,11.43
2022-08-17T23:34:12.205Z,10.55
2022-08-17T23:36:39.175Z,11.32
2022-08-17T23:39:07.051Z,12.88
2022-08-17T23:41:38.532Z,12.50
2022-08-17T23:44:06.433Z,12.27
2022-08-17T23:46:34.595Z,10.77
2022-08-17T23:49:01.470Z,12.52
2022-08-17T23:51:34.612Z,12.13
2022-08-17T23:54:08.311Z,13.50
2022-08-17T23:59:05.136Z,13.95
